sensor_id;sensor_type;location;lat;lon;timestamp;P1;durP1;ratioP1;P2;durP2;ratioP2
45694;SDS011;31408;45.468;9.124;2023-03-01T00:01:50;29.08;;;13.60;;
45694;SDS011;31408;45.468;9.124;2023-03-01T00:04:16;31.35;;;15.43;;
45694;SDS011;31408;45.468;9.124;2023-03-01T00:06:44;28.92;;;15.50;;
45694;SDS011;31408;45.468;9.124;2023-03-01T00:09:13;31.42;;;15.25;;
45694;SDS011;31408;45.468;9.124;2023-03-01T00:11:40;28.45;;;14.07;;
45694;SDS011;31408;45.468;9.124;2023-03-01T00:14:05;34.08;;;15.43;;
45694;SDS011;31408;45.468;9.124;2023-03-01T00:16:39;34.88;;;16.88;;
45694;SDS011;31408;45.468;9.124;2023-03-01T00:19:10;29.50;;;16.95;;
45694;SDS011;31408;45.468;9.124;2023-03-01T00:21:37;40.20;;;16.38;;
45694;SDS011;31408;45.468;9.124;2023-03-01T00:24:08;30.88;;;16.02;;
45694;SDS011;31408;45.468;9.124;2023-03-01T00:26:33;34.80;;;15.70;;
45694;SDS011;31408;45.468;9.124;2023-03-01T00:28:59;33.50;;;17.58;;
45694;SDS011;31408;45.468;9.124;2023-03-01T00:31:26;31.40;;;14.93;;
45694;SDS011;31408;45.468;9.124;2023-03-01T00:33:53;37.67;;;16.73;;
45694;SDS011;31408;45.468;9.124;2023-03-01T00:36:24;35.45;;;16.00;;
45694;SDS011;31408;45.468;9.124;2023-03-01T00:38:50;31.23;;;16.17;;
45694;SDS011;31408;45.468;9.124;2023-03-01T00:41:17;31.35;;;15.63;;
45694;SDS011;31408;45.468;9.124;2023-03-01T00:43:43;32.60;;;16.42;;
45694;SDS011;31408;45.468;9.124;2023-03-01T00:46:10;32.63;;;16.63;;
45694;SDS011;31408;45.468;9.124;2023-03-01T00:48:37;29.45;;;15.13;;
45694;SDS011;31408;45.468;9.124;2023-03-01T00:53:59;35.25;;;17.77;;
45694;SDS011;31408;45.468;9.124;2023-03-01T00:56:26;32.15;;;16.75;;
45694;SDS011;31408;45.468;9.124;2023-03-01T00:58:51;35.75;;;17.52;;
45694;SDS011;31408;45.468;9.124;2023-03-01T01:01:22;32.65;;;16.45;;
45694;SDS011;31408;45.468;9.124;2023-03-01T01:03:59;29.05;;;15.00;;
45694;SDS011;31408;45.468;9.124;2023-03-01T01:06:27;36.65;;;18.73;;
45694;SDS011;31408;45.468;9.124;2023-03-01T01:08:55;31.85;;;17.40;;
45694;SDS011;31408;45.468;9.124;2023-03-01T01:11:22;34.03;;;17.17;;
45694;SDS011;31408;45.468;9.124;2023-03-01T01:13:54;38.20;;;18.95;;
45694;SDS011;31408;45.468;9.124;2023-03-01T01:16:21;30.45;;;15.90;;
45694;SDS011;31408;45.468;9.124;2023-03-01T01:18:48;40.95;;;18.10;;
45694;SDS011;31408;45.468;9.124;2023-03-01T01:21:14;36.03;;;16.75;;
45694;SDS011;31408;45.468;9.124;2023-03-01T01:23:41;33.15;;;16.67;;
45694;SDS011;31408;45.468;9.124;2023-03-01T01:26:09;35.00;;;18.58;;
45694;SDS011;31408;45.468;9.124;2023-03-01T01:28:37;32.75;;;18.50;;
45694;SDS011;31408;45.468;9.124;2023-03-01T01:31:03;34.28;;;15.98;;
45694;SDS011;31408;45.468;9.124;2023-03-01T01:33:29;36.63;;;17.55;;
45694;SDS011;31408;45.468;9.124;2023-03-01T01:35:55;36.00;;;17.33;;
45694;SDS011;31408;45.468;9.124;2023-03-01T01:38:20;34.95;;;16.98;;
45694;SDS011;31408;45.468;9.124;2023-03-01T01:40:46;36.38;;;17.65;;
45694;SDS011;31408;45.468;9.124;2023-03-01T01:43:29;34.42;;;17.75;;
45694;SDS011;31408;45.468;9.124;2023-03-01T01:46:21;36.92;;;17.48;;
45694;SDS011;31408;45.468;9.124;2023-03-01T01:48:55;32.67;;;16.15;;
45694;SDS011;31408;45.468;9.124;2023-03-01T01:51:25;32.20;;;16.80;;
45694;SDS011;31408;45.468;9.124;2023-03-01T01:53:57;27.13;;;14.23;;
45694;SDS011;31408;45.468;9.124;2023-03-01T01:56:24;29.52;;;15.57;;
45694;SDS011;31408;45.468;9.124;2023-03-01T01:58:50;31.77;;;15.40;;
45694;SDS011;31408;45.468;9.124;2023-03-01T02:01:16;34.30;;;17.15;;
45694;SDS011;31408;45.468;9.124;2023-03-01T02:03:42;31.42;;;16.17;;
45694;SDS011;31408;45.468;9.124;2023-03-01T02:06:13;30.73;;;17.73;;
45694;SDS011;31408;45.468;9.124;2023-03-01T02:08:44;30.35;;;15.20;;
45694;SDS011;31408;45.468;9.124;2023-03-01T02:11:11;28.65;;;14.95;;
45694;SDS011;31408;45.468;9.124;2023-03-01T02:13:39;34.65;;;15.88;;
45694;SDS011;31408;45.468;9.124;2023-03-01T02:16:08;29.45;;;14.88;;
45694;SDS011;31408;45.468;9.124;2023-03-01T02:18:34;27.55;;;14.93;;
45694;SDS011;31408;45.468;9.124;2023-03-01T02:23:41;34.67;;;16.10;;
45694;SDS011;31408;45.468;9.124;2023-03-01T02:26:18;30.75;;;14.88;;
45694;SDS011;31408;45.468;9.124;2023-03-01T02:28:46;29.38;;;14.52;;
45694;SDS011;31408;45.468;9.124;2023-03-01T02:31:14;29.85;;;15.18;;
45694;SDS011;31408;45.468;9.124;2023-03-01T02:34:00;36.50;;;17.42;;
45694;SDS011;31408;45.468;9.124;2023-03-01T02:36:38;30.92;;;14.88;;
45694;SDS011;31408;45.468;9.124;2023-03-01T02:39:17;34.15;;;16.08;;
45694;SDS011;31408;45.468;9.124;2023-03-01T02:41:46;30.27;;;13.65;;
45694;SDS011;31408;45.468;9.124;2023-03-01T02:44:15;33.35;;;16.30;;
45694;SDS011;31408;45.468;9.124;2023-03-01T02:46:41;30.05;;;15.68;;
45694;SDS011;31408;45.468;9.124;2023-03-01T02:49:24;33.53;;;14.43;;
45694;SDS011;31408;45.468;9.124;2023-03-01T02:51:58;29.95;;;15.40;;
45694;SDS011;31408;45.468;9.124;2023-03-01T02:57:17;31.52;;;16.38;;
45694;SDS011;31408;45.468;9.124;2023-03-01T02:59:44;33.47;;;14.98;;
45694;SDS011;31408;45.468;9.124;2023-03-01T03:02:23;28.08;;;15.15;;
45694;SDS011;31408;45.468;9.124;2023-03-01T03:05:19;26.33;;;13.55;;
45694;SDS011;31408;45.468;9.124;2023-03-01T03:07:50;34.95;;;15.63;;
45694;SDS011;31408;45.468;9.124;2023-03-01T03:10:18;28.35;;;13.35;;
45694;SDS011;31408;45.468;9.124;2023-03-01T03:12:53;30.20;;;14.30;;
45694;SDS011;31408;45.468;9.124;2023-03-01T03:15:21;32.13;;;14.15;;
45694;SDS011;31408;45.468;9.124;2023-03-01T03:17:47;27.90;;;13.90;;
45694;SDS011;31408;45.468;9.124;2023-03-01T03:20:14;30.42;;;15.07;;
45694;SDS011;31408;45.468;9.124;2023-03-01T03:22:47;31.52;;;15.82;;
45694;SDS011;31408;45.468;9.124;2023-03-01T03:25:14;35.40;;;18.80;;
45694;SDS011;31408;45.468;9.124;2023-03-01T03:27:41;25.00;;;14.20;;
45694;SDS011;31408;45.468;9.124;2023-03-01T03:30:09;33.92;;;17.27;;
45694;SDS011;31408;45.468;9.124;2023-03-01T03:32:41;30.75;;;14.52;;
45694;SDS011;31408;45.468;9.124;2023-03-01T03:35:08;31.90;;;14.80;;
45694;SDS011;31408;45.468;9.124;2023-03-01T03:37:38;31.00;;;14.30;;
45694;SDS011;31408;45.468;9.124;2023-03-01T03:40:23;27.38;;;15.05;;
45694;SDS011;31408;45.468;9.124;2023-03-01T03:42:48;27.92;;;13.43;;
45694;SDS011;31408;45.468;9.124;2023-03-01T03:45:15;33.55;;;15.27;;
45694;SDS011;31408;45.468;9.124;2023-03-01T03:47:41;29.45;;;16.15;;
45694;SDS011;31408;45.468;9.124;2023-03-01T03:50:07;33.50;;;14.98;;
45694;SDS011;31408;45.468;9.124;2023-03-01T03:52:34;24.92;;;13.68;;
45694;SDS011;31408;45.468;9.124;2023-03-01T03:55:00;36.83;;;15.15;;
45694;SDS011;31408;45.468;9.124;2023-03-01T03:57:25;30.77;;;15.18;;
45694;SDS011;31408;45.468;9.124;2023-03-01T03:59:50;28.05;;;13.23;;
45694;SDS011;31408;45.468;9.124;2023-03-01T04:02:16;32.67;;;17.50;;
45694;SDS011;31408;45.468;9.124;2023-03-01T04:04:50;33.08;;;17.67;;
45694;SDS011;31408;45.468;9.124;2023-03-01T04:07:18;30.60;;;14.95;;
45694;SDS011;31408;45.468;9.124;2023-03-01T04:09:44;31.23;;;15.27;;
45694;SDS011;31408;45.468;9.124;2023-03-01T04:12:09;27.73;;;14.32;;
45694;SDS011;31408;45.468;9.124;2023-03-01T04:14:35;29.05;;;15.10;;
45694;SDS011;31408;45.468;9.124;2023-03-01T04:17:01;34.00;;;15.50;;
45694;SDS011;31408;45.468;9.124;2023-03-01T04:19:26;29.75;;;14.48;;
45694;SDS011;31408;45.468;9.124;2023-03-01T04:21:52;29.60;;;13.90;;
45694;SDS011;31408;45.468;9.124;2023-03-01T04:24:18;34.38;;;17.25;;
45694;SDS011;31408;45.468;9.124;2023-03-01T04:26:44;32.95;;;14.82;;
45694;SDS011;31408;45.468;9.124;2023-03-01T04:29:09;31.27;;;15.43;;
45694;SDS011;31408;45.468;9.124;2023-03-01T04:31:35;29.52;;;15.23;;
45694;SDS011;31408;45.468;9.124;2023-03-01T04:34:01;30.83;;;14.50;;
45694;SDS011;31408;45.468;9.124;2023-03-01T04:36:28;29.48;;;14.60;;
45694;SDS011;31408;45.468;9.124;2023-03-01T04:38:54;27.45;;;14.20;;
45694;SDS011;31408;45.468;9.124;2023-03-01T04:41:22;31.92;;;16.42;;
45694;SDS011;31408;45.468;9.124;2023-03-01T04:43:48;30.23;;;13.95;;
45694;SDS011;31408;45.468;9.124;2023-03-01T04:46:16;30.13;;;15.93;;
45694;SDS011;31408;45.468;9.124;2023-03-01T04:48:43;30.85;;;14.00;;
45694;SDS011;31408;45.468;9.124;2023-03-01T04:51:09;33.22;;;16.92;;
45694;SDS011;31408;45.468;9.124;2023-03-01T04:53:38;33.28;;;15.00;;
45694;SDS011;31408;45.468;9.124;2023-03-01T04:56:04;30.30;;;15.20;;
45694;SDS011;31408;45.468;9.124;2023-03-01T04:58:30;30.55;;;16.00;;
45694;SDS011;31408;45.468;9.124;2023-03-01T05:00:56;31.92;;;15.73;;
45694;SDS011;31408;45.468;9.124;2023-03-01T05:03:21;30.27;;;14.68;;
45694;SDS011;31408;45.468;9.124;2023-03-01T05:05:48;33.97;;;16.52;;
45694;SDS011;31408;45.468;9.124;2023-03-01T05:08:15;35.22;;;15.15;;
45694;SDS011;31408;45.468;9.124;2023-03-01T05:10:44;34.92;;;15.52;;
45694;SDS011;31408;45.468;9.124;2023-03-01T05:13:11;32.35;;;15.23;;
45694;SDS011;31408;45.468;9.124;2023-03-01T05:15:46;33.65;;;15.45;;
45694;SDS011;31408;45.468;9.124;2023-03-01T05:18:13;30.10;;;15.35;;
45694;SDS011;31408;45.468;9.124;2023-03-01T05:20:39;36.38;;;16.00;;
45694;SDS011;31408;45.468;9.124;2023-03-01T05:23:04;33.92;;;17.00;;
45694;SDS011;31408;45.468;9.124;2023-03-01T05:25:31;31.10;;;15.82;;
45694;SDS011;31408;45.468;9.124;2023-03-01T05:28:00;34.40;;;16.17;;
45694;SDS011;31408;45.468;9.124;2023-03-01T05:30:32;35.60;;;16.55;;
45694;SDS011;31408;45.468;9.124;2023-03-01T05:32:59;34.10;;;17.10;;
45694;SDS011;31408;45.468;9.124;2023-03-01T05:35:25;34.20;;;16.65;;
45694;SDS011;31408;45.468;9.124;2023-03-01T05:37:50;32.55;;;17.55;;
45694;SDS011;31408;45.468;9.124;2023-03-01T05:40:20;31.95;;;16.73;;
45694;SDS011;31408;45.468;9.124;2023-03-01T05:42:52;34.17;;;15.18;;
45694;SDS011;31408;45.468;9.124;2023-03-01T05:45:19;31.83;;;14.52;;
45694;SDS011;31408;45.468;9.124;2023-03-01T05:47:47;31.85;;;13.75;;
45694;SDS011;31408;45.468;9.124;2023-03-01T05:50:14;38.67;;;17.17;;
45694;SDS011;31408;45.468;9.124;2023-03-01T05:52:51;30.15;;;15.77;;
45694;SDS011;31408;45.468;9.124;2023-03-01T05:55:21;40.47;;;17.13;;
45694;SDS011;31408;45.468;9.124;2023-03-01T05:57:47;38.85;;;15.70;;
45694;SDS011;31408;45.468;9.124;2023-03-01T06:00:13;28.90;;;15.77;;
45694;SDS011;31408;45.468;9.124;2023-03-01T06:02:39;31.90;;;16.40;;
45694;SDS011;31408;45.468;9.124;2023-03-01T06:05:06;36.38;;;16.80;;
45694;SDS011;31408;45.468;9.124;2023-03-01T06:07:32;32.45;;;14.98;;
45694;SDS011;31408;45.468;9.124;2023-03-01T06:09:58;33.45;;;16.90;;
45694;SDS011;31408;45.468;9.124;2023-03-01T06:12:23;30.58;;;15.20;;
45694;SDS011;31408;45.468;9.124;2023-03-01T06:14:49;37.05;;;17.13;;
45694;SDS011;31408;45.468;9.124;2023-03-01T06:17:14;32.10;;;15.43;;
45694;SDS011;31408;45.468;9.124;2023-03-01T06:19:40;38.17;;;16.15;;
45694;SDS011;31408;45.468;9.124;2023-03-01T06:22:05;32.97;;;14.95;;
45694;SDS011;31408;45.468;9.124;2023-03-01T06:24:31;32.75;;;15.27;;
45694;SDS011;31408;45.468;9.124;2023-03-01T06:26:56;30.95;;;14.85;;
45694;SDS011;31408;45.468;9.124;2023-03-01T06:29:22;30.30;;;15.57;;
45694;SDS011;31408;45.468;9.124;2023-03-01T06:31:48;37.90;;;17.35;;
45694;SDS011;31408;45.468;9.124;2023-03-01T06:34:14;30.95;;;16.55;;
45694;SDS011;31408;45.468;9.124;2023-03-01T06:36:39;37.65;;;19.52;;
45694;SDS011;31408;45.468;9.124;2023-03-01T06:39:05;45.50;;;18.23;;
45694;SDS011;31408;45.468;9.124;2023-03-01T06:41:31;35.97;;;16.05;;
45694;SDS011;31408;45.468;9.124;2023-03-01T06:44:02;29.77;;;15.02;;
45694;SDS011;31408;45.468;9.124;2023-03-01T06:46:28;32.55;;;16.40;;
45694;SDS011;31408;45.468;9.124;2023-03-01T06:48:53;32.58;;;16.73;;
45694;SDS011;31408;45.468;9.124;2023-03-01T06:51:19;31.92;;;16.67;;
45694;SDS011;31408;45.468;9.124;2023-03-01T06:53:45;32.80;;;16.92;;
45694;SDS011;31408;45.468;9.124;2023-03-01T06:56:11;29.15;;;15.68;;
45694;SDS011;31408;45.468;9.124;2023-03-01T06:58:37;32.80;;;16.90;;
45694;SDS011;31408;45.468;9.124;2023-03-01T07:01:08;30.70;;;15.77;;
45694;SDS011;31408;45.468;9.124;2023-03-01T07:03:34;30.67;;;16.10;;
45694;SDS011;31408;45.468;9.124;2023-03-01T07:06:00;30.48;;;14.70;;
45694;SDS011;31408;45.468;9.124;2023-03-01T07:08:25;32.20;;;15.40;;
45694;SDS011;31408;45.468;9.124;2023-03-01T07:10:55;26.92;;;14.60;;
45694;SDS011;31408;45.468;9.124;2023-03-01T07:13:21;29.30;;;16.20;;
45694;SDS011;31408;45.468;9.124;2023-03-01T07:15:47;31.05;;;15.98;;
45694;SDS011;31408;45.468;9.124;2023-03-01T07:18:12;27.60;;;14.25;;
45694;SDS011;31408;45.468;9.124;2023-03-01T07:20:37;32.97;;;15.68;;
45694;SDS011;31408;45.468;9.124;2023-03-01T07:23:03;30.58;;;14.93;;
45694;SDS011;31408;45.468;9.124;2023-03-01T07:25:30;23.10;;;12.00;;
45694;SDS011;31408;45.468;9.124;2023-03-01T07:27:57;29.13;;;15.18;;
45694;SDS011;31408;45.468;9.124;2023-03-01T07:30:22;26.48;;;12.10;;
45694;SDS011;31408;45.468;9.124;2023-03-01T07:32:51;26.00;;;12.48;;
45694;SDS011;31408;45.468;9.124;2023-03-01T07:35:16;30.00;;;14.35;;
45694;SDS011;31408;45.468;9.124;2023-03-01T07:37:42;22.17;;;12.27;;
45694;SDS011;31408;45.468;9.124;2023-03-01T07:40:08;25.60;;;13.45;;
45694;SDS011;31408;45.468;9.124;2023-03-01T07:42:34;25.70;;;12.23;;
45694;SDS011;31408;45.468;9.124;2023-03-01T07:45:00;26.48;;;11.25;;
45694;SDS011;31408;45.468;9.124;2023-03-01T07:47:25;26.08;;;11.38;;
45694;SDS011;31408;45.468;9.124;2023-03-01T07:49:51;23.77;;;11.57;;
45694;SDS011;31408;45.468;9.124;2023-03-01T07:52:16;22.85;;;10.02;;
45694;SDS011;31408;45.468;9.124;2023-03-01T07:54:42;24.58;;;10.88;;
45694;SDS011;31408;45.468;9.124;2023-03-01T07:57:09;21.33;;;9.85;;
45694;SDS011;31408;45.468;9.124;2023-03-01T07:59:34;27.15;;;12.77;;
45694;SDS011;31408;45.468;9.124;2023-03-01T08:02:00;26.30;;;13.80;;
45694;SDS011;31408;45.468;9.124;2023-03-01T08:04:33;29.45;;;12.98;;
45694;SDS011;31408;45.468;9.124;2023-03-01T08:06:59;26.70;;;12.82;;
45694;SDS011;31408;45.468;9.124;2023-03-01T08:09:25;27.70;;;13.27;;
45694;SDS011;31408;45.468;9.124;2023-03-01T08:11:51;24.85;;;12.32;;
45694;SDS011;31408;45.468;9.124;2023-03-01T08:14:16;23.52;;;12.68;;
45694;SDS011;31408;45.468;9.124;2023-03-01T08:16:42;29.90;;;14.15;;
45694;SDS011;31408;45.468;9.124;2023-03-01T08:19:08;25.90;;;11.95;;
45694;SDS011;31408;45.468;9.124;2023-03-01T08:21:35;27.10;;;12.88;;
45694;SDS011;31408;45.468;9.124;2023-03-01T08:24:09;26.27;;;11.60;;
45694;SDS011;31408;45.468;9.124;2023-03-01T08:26:36;27.92;;;12.50;;
45694;SDS011;31408;45.468;9.124;2023-03-01T08:29:02;24.08;;;11.27;;
45694;SDS011;31408;45.468;9.124;2023-03-01T08:31:29;25.92;;;12.80;;
45694;SDS011;31408;45.468;9.124;2023-03-01T08:33:58;23.25;;;11.70;;
45694;SDS011;31408;45.468;9.124;2023-03-01T08:36:26;23.67;;;11.27;;
45694;SDS011;31408;45.468;9.124;2023-03-01T08:38:52;24.73;;;12.10;;
45694;SDS011;31408;45.468;9.124;2023-03-01T08:41:18;22.02;;;12.10;;
45694;SDS011;31408;45.468;9.124;2023-03-01T08:43:44;24.40;;;11.77;;
45694;SDS011;31408;45.468;9.124;2023-03-01T08:46:10;21.52;;;11.25;;
45694;SDS011;31408;45.468;9.124;2023-03-01T08:48:36;20.65;;;10.13;;
45694;SDS011;31408;45.468;9.124;2023-03-01T08:51:08;26.98;;;11.60;;
45694;SDS011;31408;45.468;9.124;2023-03-01T08:53:38;24.08;;;10.75;;
45694;SDS011;31408;45.468;9.124;2023-03-01T08:56:04;21.73;;;11.35;;
45694;SDS011;31408;45.468;9.124;2023-03-01T08:58:30;28.70;;;13.55;;
45694;SDS011;31408;45.468;9.124;2023-03-01T09:00:55;23.13;;;10.40;;
45694;SDS011;31408;45.468;9.124;2023-03-01T09:03:24;24.02;;;11.80;;
45694;SDS011;31408;45.468;9.124;2023-03-01T09:05:50;23.77;;;11.30;;
45694;SDS011;31408;45.468;9.124;2023-03-01T09:08:17;24.85;;;12.23;;
45694;SDS011;31408;45.468;9.124;2023-03-01T09:10:43;27.10;;;11.95;;
45694;SDS011;31408;45.468;9.124;2023-03-01T09:13:08;24.80;;;12.13;;
45694;SDS011;31408;45.468;9.124;2023-03-01T09:15:36;24.02;;;12.20;;
45694;SDS011;31408;45.468;9.124;2023-03-01T09:18:02;24.52;;;11.13;;
45694;SDS011;31408;45.468;9.124;2023-03-01T09:20:27;26.20;;;12.00;;
45694;SDS011;31408;45.468;9.124;2023-03-01T09:22:53;21.33;;;9.88;;
45694;SDS011;31408;45.468;9.124;2023-03-01T09:25:19;20.90;;;10.80;;
45694;SDS011;31408;45.468;9.124;2023-03-01T09:27:44;28.20;;;12.32;;
45694;SDS011;31408;45.468;9.124;2023-03-01T09:30:10;26.67;;;12.60;;
45694;SDS011;31408;45.468;9.124;2023-03-01T09:32:36;21.02;;;10.90;;
45694;SDS011;31408;45.468;9.124;2023-03-01T09:35:01;21.02;;;9.90;;
45694;SDS011;31408;45.468;9.124;2023-03-01T09:37:30;23.58;;;10.68;;
45694;SDS011;31408;45.468;9.124;2023-03-01T09:39:57;25.05;;;10.98;;
45694;SDS011;31408;45.468;9.124;2023-03-01T09:42:22;23.92;;;11.38;;
45694;SDS011;31408;45.468;9.124;2023-03-01T09:44:51;25.73;;;13.32;;
45694;SDS011;31408;45.468;9.124;2023-03-01T09:47:24;24.40;;;10.67;;
45694;SDS011;31408;45.468;9.124;2023-03-01T09:55:42;22.98;;;10.90;;
45694;SDS011;31408;45.468;9.124;2023-03-01T09:58:27;20.63;;;11.20;;
45694;SDS011;31408;45.468;9.124;2023-03-01T10:00:57;24.23;;;10.80;;
45694;SDS011;31408;45.468;9.124;2023-03-01T10:11:23;22.02;;;9.88;;
45694;SDS011;31408;45.468;9.124;2023-03-01T10:13:55;20.88;;;8.30;;
45694;SDS011;31408;45.468;9.124;2023-03-01T10:16:26;22.83;;;9.25;;
45694;SDS011;31408;45.468;9.124;2023-03-01T10:19:02;20.75;;;8.80;;
45694;SDS011;31408;45.468;9.124;2023-03-01T10:21:28;19.45;;;9.38;;
45694;SDS011;31408;45.468;9.124;2023-03-01T10:24:19;27.10;;;10.68;;
45694;SDS011;31408;45.468;9.124;2023-03-01T10:29:26;22.40;;;10.07;;
45694;SDS011;31408;45.468;9.124;2023-03-01T10:31:56;18.60;;;8.90;;
45694;SDS011;31408;45.468;9.124;2023-03-01T10:34:27;22.35;;;8.93;;
45694;SDS011;31408;45.468;9.124;2023-03-01T10:36:56;30.00;;;9.48;;
45694;SDS011;31408;45.468;9.124;2023-03-01T10:39:24;21.25;;;8.55;;
45694;SDS011;31408;45.468;9.124;2023-03-01T10:41:55;18.52;;;8.05;;
45694;SDS011;31408;45.468;9.124;2023-03-01T10:44:38;19.42;;;9.30;;
45694;SDS011;31408;45.468;9.124;2023-03-01T10:47:20;20.77;;;9.45;;
45694;SDS011;31408;45.468;9.124;2023-03-01T10:49:58;22.42;;;8.73;;
45694;SDS011;31408;45.468;9.124;2023-03-01T10:52:27;20.00;;;8.88;;
45694;SDS011;31408;45.468;9.124;2023-03-01T10:55:04;22.73;;;10.68;;
45694;SDS011;31408;45.468;9.124;2023-03-01T10:58:39;23.92;;;9.45;;
45694;SDS011;31408;45.468;9.124;2023-03-01T11:00:46;17.95;;;9.02;;
45694;SDS011;31408;45.468;9.124;2023-03-01T11:03:17;18.65;;;9.73;;
45694;SDS011;31408;45.468;9.124;2023-03-01T11:08:41;22.58;;;9.93;;
45694;SDS011;31408;45.468;9.124;2023-03-01T11:13:34;26.45;;;10.82;;
45694;SDS011;31408;45.468;9.124;2023-03-01T11:16:05;22.10;;;9.73;;
45694;SDS011;31408;45.468;9.124;2023-03-01T11:18:32;24.80;;;11.82;;
45694;SDS011;31408;45.468;9.124;2023-03-01T11:20:58;24.33;;;11.13;;
45694;SDS011;31408;45.468;9.124;2023-03-01T11:23:25;23.55;;;11.20;;
45694;SDS011;31408;45.468;9.124;2023-03-01T11:25:57;24.40;;;10.35;;
45694;SDS011;31408;45.468;9.124;2023-03-01T11:28:24;20.33;;;10.38;;
45694;SDS011;31408;45.468;9.124;2023-03-01T11:36:03;20.92;;;10.13;;
45694;SDS011;31408;45.468;9.124;2023-03-01T11:38:33;20.20;;;10.93;;
45694;SDS011;31408;45.468;9.124;2023-03-01T11:41:01;23.63;;;11.20;;
45694;SDS011;31408;45.468;9.124;2023-03-01T11:43:33;24.30;;;10.40;;
45694;SDS011;31408;45.468;9.124;2023-03-01T11:56:57;26.98;;;9.95;;
45694;SDS011;31408;45.468;9.124;2023-03-01T12:02:02;22.33;;;10.10;;
45694;SDS011;31408;45.468;9.124;2023-03-01T12:13:22;23.95;;;10.85;;
45694;SDS011;31408;45.468;9.124;2023-03-01T12:15:58;22.70;;;10.27;;
45694;SDS011;31408;45.468;9.124;2023-03-01T12:21:27;23.48;;;9.73;;
45694;SDS011;31408;45.468;9.124;2023-03-01T12:27:18;24.13;;;11.45;;
45694;SDS011;31408;45.468;9.124;2023-03-01T12:35:07;24.27;;;11.50;;
45694;SDS011;31408;45.468;9.124;2023-03-01T12:51:34;21.98;;;11.52;;
45694;SDS011;31408;45.468;9.124;2023-03-01T12:54:02;25.75;;;11.80;;
45694;SDS011;31408;45.468;9.124;2023-03-01T12:56:35;23.35;;;11.30;;
45694;SDS011;31408;45.468;9.124;2023-03-01T13:02:02;26.38;;;12.63;;
45694;SDS011;31408;45.468;9.124;2023-03-01T13:04:38;26.35;;;12.20;;
45694;SDS011;31408;45.468;9.124;2023-03-01T13:07:11;23.08;;;12.00;;
45694;SDS011;31408;45.468;9.124;2023-03-01T13:09:43;27.13;;;11.88;;
45694;SDS011;31408;45.468;9.124;2023-03-01T13:17:51;29.00;;;11.80;;
45694;SDS011;31408;45.468;9.124;2023-03-01T13:20:22;24.00;;;11.25;;
45694;SDS011;31408;45.468;9.124;2023-03-01T13:23:00;23.23;;;11.30;;
45694;SDS011;31408;45.468;9.124;2023-03-01T13:25:31;25.00;;;11.15;;
45694;SDS011;31408;45.468;9.124;2023-03-01T13:28:32;23.48;;;10.90;;
45694;SDS011;31408;45.468;9.124;2023-03-01T13:30:56;22.83;;;10.60;;
45694;SDS011;31408;45.468;9.124;2023-03-01T13:35:50;23.15;;;11.00;;
45694;SDS011;31408;45.468;9.124;2023-03-01T13:41:07;25.70;;;12.18;;
45694;SDS011;31408;45.468;9.124;2023-03-01T13:43:42;26.77;;;11.13;;
45694;SDS011;31408;45.468;9.124;2023-03-01T13:46:20;24.45;;;11.30;;
45694;SDS011;31408;45.468;9.124;2023-03-01T13:48:48;25.48;;;11.90;;
45694;SDS011;31408;45.468;9.124;2023-03-01T13:51:16;25.45;;;11.57;;
45694;SDS011;31408;45.468;9.124;2023-03-01T13:53:46;23.70;;;11.38;;
45694;SDS011;31408;45.468;9.124;2023-03-01T13:56:25;22.48;;;10.70;;
45694;SDS011;31408;45.468;9.124;2023-03-01T13:58:53;21.02;;;10.95;;
45694;SDS011;31408;45.468;9.124;2023-03-01T14:01:23;30.35;;;13.00;;
45694;SDS011;31408;45.468;9.124;2023-03-01T14:03:51;30.33;;;12.07;;
45694;SDS011;31408;45.468;9.124;2023-03-01T14:06:19;24.50;;;11.70;;
45694;SDS011;31408;45.468;9.124;2023-03-01T14:08:47;23.25;;;10.70;;
45694;SDS011;31408;45.468;9.124;2023-03-01T14:19:19;27.55;;;11.80;;
45694;SDS011;31408;45.468;9.124;2023-03-01T14:21:57;23.95;;;10.73;;
45694;SDS011;31408;45.468;9.124;2023-03-01T14:24:51;28.05;;;10.75;;
45694;SDS011;31408;45.468;9.124;2023-03-01T14:27:18;25.23;;;11.82;;
45694;SDS011;31408;45.468;9.124;2023-03-01T14:29:44;27.20;;;12.70;;
45694;SDS011;31408;45.468;9.124;2023-03-01T14:32:24;27.90;;;13.82;;
45694;SDS011;31408;45.468;9.124;2023-03-01T14:34:54;28.23;;;12.05;;
45694;SDS011;31408;45.468;9.124;2023-03-01T14:37:22;25.30;;;10.43;;
45694;SDS011;31408;45.468;9.124;2023-03-01T14:39:50;25.20;;;10.98;;
45694;SDS011;31408;45.468;9.124;2023-03-01T14:42:16;23.98;;;11.15;;
45694;SDS011;31408;45.468;9.124;2023-03-01T14:44:43;23.05;;;11.32;;
45694;SDS011;31408;45.468;9.124;2023-03-01T14:47:14;23.92;;;11.55;;
45694;SDS011;31408;45.468;9.124;2023-03-01T14:49:41;24.27;;;11.43;;
45694;SDS011;31408;45.468;9.124;2023-03-01T14:52:17;28.88;;;12.15;;
45694;SDS011;31408;45.468;9.124;2023-03-01T14:54:48;27.50;;;11.93;;
45694;SDS011;31408;45.468;9.124;2023-03-01T14:57:16;26.80;;;12.27;;
45694;SDS011;31408;45.468;9.124;2023-03-01T14:59:44;24.83;;;12.15;;
45694;SDS011;31408;45.468;9.124;2023-03-01T15:02:15;33.55;;;11.10;;
45694;SDS011;31408;45.468;9.124;2023-03-01T15:04:49;19.58;;;11.00;;
45694;SDS011;31408;45.468;9.124;2023-03-01T15:07:16;22.20;;;10.10;;
45694;SDS011;31408;45.468;9.124;2023-03-01T15:09:43;23.30;;;10.88;;
45694;SDS011;31408;45.468;9.124;2023-03-01T15:15:20;24.13;;;9.57;;
45694;SDS011;31408;45.468;9.124;2023-03-01T15:18:01;22.15;;;11.23;;
45694;SDS011;31408;45.468;9.124;2023-03-01T15:20:28;26.80;;;11.90;;
45694;SDS011;31408;45.468;9.124;2023-03-01T15:22:56;27.40;;;11.52;;
45694;SDS011;31408;45.468;9.124;2023-03-01T15:25:23;28.13;;;12.55;;
45694;SDS011;31408;45.468;9.124;2023-03-01T15:27:51;27.33;;;11.90;;
45694;SDS011;31408;45.468;9.124;2023-03-01T15:30:18;22.88;;;11.32;;
45694;SDS011;31408;45.468;9.124;2023-03-01T15:32:46;25.58;;;11.60;;
45694;SDS011;31408;45.468;9.124;2023-03-01T15:38:23;21.77;;;9.40;;
45694;SDS011;31408;45.468;9.124;2023-03-01T15:44:15;23.90;;;10.60;;
45694;SDS011;31408;45.468;9.124;2023-03-01T15:46:45;23.02;;;11.45;;
45694;SDS011;31408;45.468;9.124;2023-03-01T15:49:45;27.38;;;12.43;;
45694;SDS011;31408;45.468;9.124;2023-03-01T15:52:16;23.08;;;10.60;;
45694;SDS011;31408;45.468;9.124;2023-03-01T15:54:53;24.55;;;11.27;;
45694;SDS011;31408;45.468;9.124;2023-03-01T15:57:23;27.08;;;12.68;;
45694;SDS011;31408;45.468;9.124;2023-03-01T15:59:48;27.45;;;13.05;;
45694;SDS011;31408;45.468;9.124;2023-03-01T16:02:14;25.23;;;12.38;;
45694;SDS011;31408;45.468;9.124;2023-03-01T16:04:40;24.33;;;11.88;;
45694;SDS011;31408;45.468;9.124;2023-03-01T16:07:05;27.23;;;12.15;;
45694;SDS011;31408;45.468;9.124;2023-03-01T16:09:30;25.48;;;11.32;;
45694;SDS011;31408;45.468;9.124;2023-03-01T16:11:56;24.08;;;11.02;;
45694;SDS011;31408;45.468;9.124;2023-03-01T16:14:21;26.33;;;13.68;;
45694;SDS011;31408;45.468;9.124;2023-03-01T16:16:47;26.30;;;10.52;;
45694;SDS011;31408;45.468;9.124;2023-03-01T16:19:13;22.27;;;11.95;;
45694;SDS011;31408;45.468;9.124;2023-03-01T16:21:39;27.90;;;11.68;;
45694;SDS011;31408;45.468;9.124;2023-03-01T16:24:05;30.52;;;12.30;;
45694;SDS011;31408;45.468;9.124;2023-03-01T16:26:31;26.25;;;12.02;;
45694;SDS011;31408;45.468;9.124;2023-03-01T16:28:57;23.90;;;11.30;;